Hit Tracker is now ESPN Home Run Tracker! Hit Tracker founder Greg Rybarczyk is now collaborating with the ESPN Stats & Information Group to continue tracking all MLB home runs, and helping baseball fans know "How Far It Really Went!™" Please credit any information on this site to ESPN Stats & Information Group. For more information and analysis on home runs, please contact founder Greg Rybarczyk. E-Mail ESPN Home Run Tracker
Main Page | Ballparks | Park Overlays | Glossary | Highlight Homers | Feedback | Bio | 3 Types of HR's | AAA Home Run Derby Last Updated: September 20, 2017, 11:02 pm PST
If you want to know "How Far It Really Went!", then you've come to the right place! Welcome to the ESPN Home Run Tracker, where you can find accurate, transparently verifiable distances for every home run hit in MLB games. Please also check out the ESPN MLB Scoreboard throughout the 2017 season! Contact us at grybar@hittrackeronline.com.
Season:
Ballpark detail for SunTrust Park
Ballpark # of Home Runs HR per game Avg.
True
Distance
Avg.
Speed
Off
Bat
Avg.
Std.
Dist.
SunTrust Park 169 2.19 401.5 103.5 397.4

Scatter Plot of Home Runs SunTrust Park
 Overlay Ballpark:
Without range rings   With range rings

2017 Season Home Runs for SunTrust Park
Click headers to sort
Date ^ Video Path Hitter Hitter
Team
Pitcher Pitcher
Team
INN Ballpark Type/
Luck
True
Dist.
Speed
Off
Bat
Elev.
Angle
Horiz.
Angle
Apex Impact Due To: Std.
Dist.
#
Parks
Wind Temp. Alt.
09/20/17 Video View Freeman, Freddie ATL Gonzalez, Gio WSH 1 SunTrust Par... ND 436 110.4 27.4 69.5 93 -1 2 2 432 30
09/20/17 Video View Turner, Trea WSH Sims, Lucas ATL 1 SunTrust Par... PL 367 98.2 30.0 116.7 81 0 1 2 363 24
09/20/17 Video View Suzuki, Kurt ATL Gonzalez, Gio WSH 5 SunTrust Par... PL 371 99.6 28.8 116.8 77 0 1 2 368 28
09/20/17 Video View Peterson, Jace ATL Albers, Matt WSH 8 SunTrust Par... PL 388 106.7 24.3 64.9 64 0 0 1 387 30
09/17/17 Video View Cabrera, Asdrubal NYM Ramirez, Jose ATL 9 SunTrust Par... PL 424 102.1 31.9 85.7 115 7 4 4 411 22
09/16/17 Video View Freeman, Freddie ATL deGrom, Jacob NYM 6 SunTrust Par... PL 407 103.4 28.0 106.0 90 0 1 2 404 30
09/10/17 Video View Gordon, Dee MIA Ramirez, Jose ATL 8 SunTrust Par... JE 367 103.2 25.2 59.3 62 0 0 1 366 26
09/10/17 Video View Adams, Lane ATL Worley, Vance MIA 11 SunTrust Par... PL 416 107.2 23.4 101.4 72 0 0 1 415 30
09/09/17 Video View Stanton, Giancarlo MIA Fried, Max ATL 1 SunTrust Par... ND 458 109.4 26.9 95.2 106 0 1 3 454 30
09/09/17 Video View Camargo, Johan ATL Conley, Adam MIA 4 SunTrust Par... PL 390 102.2 30.2 115.0 91 0 1 3 387 30
09/08/17 Video View Dietrich, Derek MIA Foltynewicz, Mike ATL 3 SunTrust Par... ND 398 106.6 26.4 63.2 75 -2 -1 0 398 30
09/08/17 Video View Freeman, Freddie ATL Urena, Jose MIA 4 SunTrust Par... PL 401 100.9 32.6 99.5 119 -2 1 4 399 26
09/07/17 Video View Kemp, Matt ATL Straily, Dan MIA 5 SunTrust Par... JE 398 103.8 24.8 104.3 72 0 1 1 397 29
09/06/17 Video View Andrus, Elvis TEX Gohara, Luiz ATL 1 SunTrust Par... PL 418 102.3 27.6 88.8 97 0 0 2 417 25
09/06/17 Video View Kemp, Matt ATL Gonzalez, Miguel TEX 1 SunTrust Par... PL 403 102.5 27.7 104.1 89 0 0 2 402 30
09/06/17 Video View Inciarte, Ender ATL Gonzalez, Miguel TEX 3 SunTrust Par... ND 399 103.4 29.1 67.9 90 0 0 2 396 30
09/06/17 Video View Napoli, Mike TEX Wisler, Matt ATL 5 SunTrust Par... PL 400 102.9 31.7 111.3 105 1 0 3 395 30
09/06/17 Video View Mazara, Nomar TEX Teheran, Julio ATL 3 SunTrust Par... PL 370 103.7 39.0 70.8 155 1 1 7 362 22
09/04/17 Video View Andrus, Elvis TEX Dickey, R.A. ATL 1 SunTrust Par... PL 415 105.6 27.1 106.9 86 -1 1 2 412 30
09/04/17 Video View Adams, Matt ATL Cashner, Andrew TEX 4 SunTrust Par... ND 408 108.2 24.1 70.8 70 0 0 1 406 30
09/04/17 Video View Odor, Rougned TEX Wisler, Matt ATL 5 SunTrust Par... PL 365 98.7 30.6 59.1 82 -1 1 2 363 30
09/04/17 Video View Mazara, Nomar TEX Dickey, R.A. ATL 5 SunTrust Par... JE 398 100.0 33.4 82.7 122 -1 2 4 394 13
08/27/17 Video View Reynolds, Mark COL Minter, A.J. ATL 6 SunTrust Par... PL 422 105.3 27.9 103.4 95 0 1 2 418 30
08/26/17 Video View LeMahieu, DJ COL Newcomb, Sean ATL 5 SunTrust Par... PL 354 95.3 33.2 61.5 91 0 2 3 349 19
08/26/17 Video View Blackmon, Charlie COL Vizcaino, Arodys ATL 9 SunTrust Par... JE 400 101.1 26.8 79.9 84 0 1 1 398 20
08/26/17 Video View LeMahieu, DJ COL Vizcaino, Arodys ATL 9 SunTrust Par... JE 374 97.9 32.4 112.0 98 0 1 3 370 26
08/26/17 Video View Adams, Matt ATL Holland, Greg COL 9 SunTrust Par... JE 396 100.2 34.0 80.6 125 -1 2 4 391 20
08/25/17 Video View Kemp, Matt ATL Bettis, Chad COL 1 SunTrust Par... PL 415 101.8 28.2 94.9 97 0 2 2 412 23
08/25/17 Video View Suzuki, Kurt ATL Bettis, Chad COL 2 SunTrust Par... PL 410 104.8 24.4 100.7 75 0 1 1 408 30
08/25/17 Video View Reynolds, Mark COL Teheran, Julio ATL 7 SunTrust Par... PL 399 101.2 32.3 104.9 112 -1 2 3 394 30
08/23/17 Video View Seager, Kyle SEA Winkler, Dan ATL 8 SunTrust Par... JE 410 100.9 28.0 94.7 93 0 1 2 407 16
08/22/17 Video View Markakis, Nick ATL Gonzales, Marco SEA 4 SunTrust Par... PL 379 100.2 28.6 66.6 81 0 0 1 376 24
08/21/17 Video View Suzuki, Kurt ATL Albers, Andrew SEA 2 SunTrust Par... JE 362 109.7 20.9 126.3 47 0 1 1 360 20
08/20/17 Video View Flowers, Tyler ATL Storen, Drew CIN 5 SunTrust Par... PL 397 103.8 29.8 117.2 89 -1 4 2 392 30
08/19/17 Video View Phillips, Brandon ATL Stephenson, Robert CIN 3 SunTrust Par... PL 391 109.8 23.5 121.0 60 0 2 2 388 30
08/19/17 Video View Suzuki, Kurt ATL Wojciechowski, Asher CIN 7 SunTrust Par... PL 404 102.9 32.4 107.3 115 -1 3 4 399 30
08/19/17 Video View Adams, Matt ATL Wood, Blake CIN 9 SunTrust Par... ND 393 104.2 34.5 60.6 116 0 3 4 387 30
08/19/17 Video View Gennett, Scooter CIN Johnson, Jim ATL 9 SunTrust Par... ND 440 107.5 30.3 78.1 117 1 2 3 433 29
08/18/17 Video View Adams, Matt ATL Romano, Sal CIN 2 SunTrust Par... JE 349 95.5 29.8 60.6 74 -1 1 1 346 13
08/18/17 Video View Duvall, Adam CIN Dickey, R.A. ATL 6 SunTrust Par... PL 417 102.9 27.8 98.1 95 0 1 2 414 30
08/18/17 Video View Suarez, Eugenio CIN Dickey, R.A. ATL 6 SunTrust Par... JE 400 100.9 26.3 81.1 81 0 1 1 398 20
08/18/17 Video View Winker, Jesse CIN Dickey, R.A. ATL 6 SunTrust Par... JE 348 97.5 28.4 54.9 67 -1 1 1 346 22
08/08/17 Video View Freeman, Freddie ATL Eflin, Zach PHI 1 SunTrust Par... PL 370 99.5 33.1 58.7 96 0 0 3 367 30
08/08/17 Video View Herrera, Odubel PHI Teheran, Julio ATL 5 SunTrust Par... ND 397 103.5 29.1 66.6 89 0 0 2 394 30
08/06/17 Video View Ozuna, Marcell MIA Sims, Lucas ATL 1 SunTrust Par... JE 403 100.0 29.5 98.1 99 -2 3 2 399 19
08/06/17 Video View Realmuto, J.T. MIA Sims, Lucas ATL 1 SunTrust Par... PL 401 103.6 33.9 110.8 121 -3 5 4 394 30
08/05/17 Video View Stanton, Giancarlo MIA Foltynewicz, Mike ATL 6 SunTrust Par... ND 458 110.0 28.8 100.2 113 2 3 3 450 30
08/05/17 Video View Freeman, Freddie ATL McGowan, Dustin MIA 7 SunTrust Par... PL 404 100.7 31.7 100.7 110 1 2 3 398 26
08/04/17 Video View Stanton, Giancarlo MIA Dickey, R.A. ATL 4 SunTrust Par... ND 479 113.2 24.9 92.3 101 1 2 2 475 30
08/04/17 Video View Stanton, Giancarlo MIA Dickey, R.A. ATL 6 SunTrust Par... PL 424 106.5 32.3 105.2 125 -2 3 4 418 30
08/04/17 Video View Markakis, Nick ATL Conley, Adam MIA 6 SunTrust Par... PL 385 103.0 27.2 64.2 75 0 1 1 382 29
08/03/17 Video View Taylor, Chris LAD Newcomb, Sean ATL 4 SunTrust Par... JE 417 103.2 25.2 88.8 88 -2 0 1 417 23
08/03/17 Video View Albies, Ozzie ATL Cingrani, Tony LAD 9 SunTrust Par... JE 403 101.8 30.4 96.3 117 -13 0 3 411 26
08/02/17 Video View Bellinger, Cody LAD Teheran, Julio ATL 2 SunTrust Par... PL 434 105.2 27.9 84.3 102 0 1 2 431 28
08/02/17 Video View Santana, Danny ATL Stewart, Brock LAD 2 SunTrust Par... JE 399 110.7 21.0 73.2 56 0 1 1 398 26
08/02/17 Video View Flowers, Tyler ATL Baez, Pedro LAD 8 SunTrust Par... PL 364 96.5 32.8 65.7 95 0 1 3 360 22
08/01/17 Video View Bellinger, Cody LAD Sims, Lucas ATL 4 SunTrust Par... PL 414 101.7 29.9 84.2 107 -1 2 3 411 21
08/01/17 Video View Camargo, Johan ATL Ravin, Josh LAD 8 SunTrust Par... PL 412 108.2 22.6 77.2 69 0 0 1 411 29
07/19/17 Video View Montgomery, Mike CHC Dickey, R.A. ATL 5 SunTrust Par... ND 408 104.4 32.4 66.7 110 1 5 4 399 30
07/19/17 Video View La Stella, Tommy CHC Dickey, R.A. ATL 6 SunTrust Par... JE 362 101.3 25.4 61.7 62 0 2 1 359 14
07/19/17 Video View Inciarte, Ender ATL Montgomery, Mike CHC 6 SunTrust Par... PL 393 99.4 32.1 74.4 104 0 4 3 385 28
07/19/17 Video View Flowers, Tyler ATL Grimm, Justin CHC 7 SunTrust Par... PL 414 107.8 23.2 103.3 69 0 1 1 412 30
07/19/17 Video View Baez, Javier CHC Ramirez, Jose ATL 8 SunTrust Par... PL 433 103.7 29.8 92.9 109 1 4 3 424 28
07/18/17 Video View Markakis, Nick ATL Lackey, John CHC 2 SunTrust Par... ND 389 104.9 26.9 61.9 75 -2 0 1 388 30
07/18/17 Video View Baez, Javier CHC Newcomb, Sean ATL 3 SunTrust Par... PL 428 110.4 19.9 93.4 63 0 0 0 428 26
07/18/17 Video View Contreras, Willson CHC Newcomb, Sean ATL 3 SunTrust Par... PL 425 107.8 21.3 87.6 67 0 0 0 425 27
07/17/17 Video View Rizzo, Anthony CHC Krol, Ian ATL 7 SunTrust Par... JE 418 107.3 20.8 90.7 63 -1 0 0 419 21
07/16/17 Video View Kemp, Matt ATL Godley, Zack ARI 3 SunTrust Par... JE 404 104.3 23.4 98.9 68 -1 0 0 404 21
07/16/17 Video View Adams, Matt ATL Godley, Zack ARI 3 SunTrust Par... JE 396 98.2 30.3 81.5 98 4 2 2 389 3
07/15/17 Video View Phillips, Brandon ATL Corbin, Patrick ARI 3 SunTrust Par... PL 425 107.0 25.2 103.2 78 3 2 2 420 30
07/15/17 Video View Peterson, Jace ATL De La Rosa, Jorge ARI 8 SunTrust Par... ND 429 107.2 33.0 67.2 117 12 5 4 410 30
07/14/17 Video View Freeman, Freddie ATL Walker, Taijuan ARI 6 SunTrust Par... JE 398 100.9 34.5 80.3 129 0 2 4 392 22
07/14/17 Video View Goldschmidt, Paul ARI Freeman, Sam ATL 7 SunTrust Par... PL 396 101.1 32.3 107.4 109 0 2 4 391 30
07/05/17 Video View Inciarte, Ender ATL Musgrove, Joe HOU 5 SunTrust Par... JE 338 93.5 38.0 60.4 110 5 0 4 330 2
07/04/17 Video View Springer, George HOU Newcomb, Sean ATL 3 SunTrust Par... JE 368 96.4 32.8 70.2 99 0 1 3 364 19
07/04/17 Video View Altuve, Jose HOU Brothers, Rex ATL 7 SunTrust Par... PL 407 110.3 22.6 109.1 63 0 0 1 406 30
07/04/17 Video View Reddick, Josh HOU Motte, Jason ATL 9 SunTrust Par... ND 419 107.7 29.5 65.9 98 0 1 3 416 30
06/25/17 Video View Shaw, Travis MIL Teheran, Julio ATL 1 SunTrust Par... ND 439 111.4 31.1 57.0 103 12 1 3 423 30
06/25/17 Video View Broxton, Keon MIL Teheran, Julio ATL 2 SunTrust Par... JE 369 94.7 34.1 67.0 96 14 1 3 351 1
06/24/17 Video View Phillips, Brandon ATL Garza, Matt MIL 3 SunTrust Par... PL 398 107.0 25.7 116.4 71 0 1 1 396 30
06/23/17 Video View Phillips, Brandon ATL Nelson, Jimmy MIL 1 SunTrust Par... JE/L 397 99.4 34.4 102.3 118 12 -1 4 383 20
06/23/17 Video View Broxton, Keon MIL Foltynewicz, Mike ATL 4 SunTrust Par... PL 429 103.2 31.4 91.7 117 8 -1 3 419 27
06/22/17 Video View Markakis, Nick ATL Cain, Matt SF 1 SunTrust Par... ND 401 103.5 28.2 67.6 81 6 0 2 394 30
06/22/17 Video View Posey, Buster SF Garcia, Jaime ATL 2 SunTrust Par... JE/L 336 91.7 38.8 58.4 105 14 -1 4 319 0
06/22/17 Video View Adams, Matt ATL Cain, Matt SF 4 SunTrust Par... ND 438 106.6 30.9 75.6 112 12 -1 4 424 30
06/22/17 Video View Panik, Joe SF Garcia, Jaime ATL 5 SunTrust Par... JE 401 99.2 28.1 82.9 86 4 -1 1 395 11
06/22/17 Video View Phillips, Brandon ATL Cain, Matt SF 5 SunTrust Par... ND 412 106.5 35.9 117.7 128 19 -1 5 390 30
06/22/17 Video View Adams, Lane ATL Morris, Bryan SF 5 SunTrust Par... ND/L 396 103.9 36.8 120.9 123 18 -1 5 375 30
06/22/17 Video View Belt, Brandon SF Krol, Ian ATL 8 SunTrust Par... PL 387 100.6 32.2 65.1 99 5 -1 3 380 29
06/21/17 Video View Adams, Matt ATL Samardzija, Jeff SF 4 SunTrust Par... JE 406 109.0 20.2 81.5 58 1 0 0 405 16
06/21/17 Video View Flowers, Tyler ATL Samardzija, Jeff SF 7 SunTrust Par... JE 342 94.2 34.2 119.7 94 -3 0 3 342 17
06/21/17 Video View Pence, Hunter SF Johnson, Jim ATL 9 SunTrust Par... JE 420 109.0 19.9 93.8 63 1 0 0 418 20
06/21/17 Video View Kemp, Matt ATL Gearrin, Cory SF 11 SunTrust Par... JE 348 95.7 29.6 61.7 75 -2 0 1 348 12
06/20/17 Video View Slater, Austin SF Teheran, Julio ATL 8 SunTrust Par... JE 353 98.0 27.8 58.2 67 1 0 1 350 14
06/20/17 Video View Belt, Brandon SF Motte, Jason ATL 9 SunTrust Par... ND 439 107.6 29.5 74.9 107 7 -1 3 430 30
06/19/17 Video View Adams, Matt ATL Cueto, Johnny SF 4 SunTrust Par... ND 405 107.9 25.5 65.1 73 1 0 1 402 30
06/19/17 Video View Santana, Danny ATL Law, Derek SF 8 SunTrust Par... ND 413 106.9 31.8 63.7 109 0 1 4 408 30
06/18/17 Video View Ozuna, Marcell MIA Ramirez, Jose ATL 8 SunTrust Par... PL 395 106.7 24.9 114.0 68 0 1 2 393 30
06/17/17 Video View Adams, Matt ATL Locke, Jeff MIA 3 SunTrust Par... PL 405 100.9 28.4 100.1 92 0 2 2 401 26
06/17/17 Video View Moore, Tyler MIA Garcia, Jaime ATL 5 SunTrust Par... PL 388 102.6 35.0 117.3 117 0 4 4 380 30
06/17/17 Video View Flowers, Tyler ATL Ziegler, Brad MIA 6 SunTrust Par... PL 423 104.3 27.5 99.0 95 0 1 2 420 30
06/16/17 Video View Bour, Justin MIA Newcomb, Sean ATL 4 SunTrust Par... PL 432 106.7 23.7 86.0 78 1 0 1 430 28
06/10/17 Video View Phillips, Brandon ATL Salas, Fernando NYM 8 SunTrust Par... PL 379 106.6 23.7 117.7 59 0 1 1 378 30
06/10/17 Video View Cespedes, Yoenis NYM Jackson, Luke ATL 9 SunTrust Par... JE 399 99.3 29.5 98.5 96 0 2 2 395 12
06/10/17 Video View Bruce, Jay NYM Wisler, Matt ATL 5 SunTrust Par... PL 369 98.8 30.7 60.6 84 0 1 2 365 27
06/10/17 Video View Rivera, T.J. NYM O'Flaherty, Eric ATL 8 SunTrust Par... PL 394 101.5 33.3 107.3 117 -2 2 4 390 30
06/09/17 Video View Granderson, Curtis NYM Teheran, Julio ATL 3 SunTrust Par... JE 414 100.9 32.7 85.2 118 9 -1 3 403 9
06/09/17 Video View d'Arnaud, Travis NYM Motte, Jason ATL 7 SunTrust Par... JE 404 110.7 22.1 109.3 59 0 0 1 403 30
06/07/17 Video View Swanson, Dansby ATL Eickhoff, Jerad PHI 5 SunTrust Par... PL 409 102.2 31.3 102.2 111 -1 1 3 405 30
06/07/17 Video View Adams, Matt ATL Blanco, Andres PHI 8 SunTrust Par... PL 411 102.1 26.2 84.1 85 0 0 1 409 18
06/06/17 Video View Kendrick, Howard PHI Garcia, Jaime ATL 4 SunTrust Par... PL 414 103.9 26.1 100.9 81 2 -1 1 411 30
06/05/17 Video View Herrera, Odubel PHI Freeman, Sam ATL 4 SunTrust Par... JE 371 110.1 21.1 60.3 50 0 0 1 370 24
06/05/17 Video View Altherr, Aaron PHI O'Flaherty, Eric ATL 8 SunTrust Par... PL 423 104.1 25.7 94.1 87 0 0 1 421 27
06/05/17 Video View Joseph, Tommy PHI Colon, Bartolo ATL 1 SunTrust Par... ND 415 108.9 37.5 115.0 148 25 -1 7 385 30
05/25/17 Video View Frazier, Adam PIT Colon, Bartolo ATL 2 SunTrust Par... PL 407 102.5 28.3 71.7 82 10 0 2 396 29
05/24/17 Video View Frazier, Adam PIT Teheran, Julio ATL 2 SunTrust Par... ND 402 105.2 28.7 61.0 82 6 0 2 394 30
05/24/17 Video View Freese, David PIT Collmenter, Josh ATL 10 SunTrust Par... PL 422 102.0 30.4 95.0 107 8 -1 3 413 26
05/24/17 Video View Osuna, Jose PIT Collmenter, Josh ATL 10 SunTrust Par... PL 409 102.1 32.1 107.1 106 11 -2 4 396 30
05/24/17 Video View Mercer, Jordy PIT Collmenter, Josh ATL 10 SunTrust Par... PL 423 105.0 23.5 88.4 76 2 0 1 421 26
05/23/17 Video View Mercer, Jordy PIT Dickey, R.A. ATL 6 SunTrust Par... JE 345 95.9 30.4 61.8 82 -8 0 2 351 26
05/23/17 Video View Adams, Matt ATL Glasnow, Tyler PIT 6 SunTrust Par... PL 407 104.8 29.9 74.0 110 -10 0 3 414 30
05/22/17 Video View Phillips, Brandon ATL Cole, Gerrit PIT 3 SunTrust Par... PL 431 105.1 28.0 98.9 98 4 0 2 426 30
05/22/17 Video View Adams, Matt ATL Cole, Gerrit PIT 5 SunTrust Par... ND 401 105.7 30.9 71.6 116 -16 -1 4 413 30
05/21/17 Video View Murphy, Daniel WSH Garcia, Jaime ATL 2 SunTrust Par... ND 403 103.0 29.8 68.7 93 3 1 2 396 30
05/20/17 Video View Ruiz, Rio ATL Scherzer, Max WSH 2 SunTrust Par... JE 376 107.3 22.0 66.9 54 0 0 1 375 19
05/20/17 Video View Kemp, Matt ATL Scherzer, Max WSH 4 SunTrust Par... PL 423 110.0 20.5 96.0 62 1 1 0 422 26
05/20/17 Video View Flowers, Tyler ATL Albers, Matt WSH 8 SunTrust Par... PL 391 102.1 31.7 114.7 101 1 0 3 388 30
05/19/17 Video View Swanson, Dansby ATL Gonzalez, Gio WSH 2 SunTrust Par... PL 412 101.7 30.2 99.5 105 1 2 3 406 28
05/19/17 Video View Kemp, Matt ATL Gonzalez, Gio WSH 3 SunTrust Par... JE 413 106.0 22.0 84.2 67 1 0 0 412 18
05/19/17 Video View Murphy, Daniel WSH Dickey, R.A. ATL 4 SunTrust Par... JE 420 107.1 21.3 86.8 68 1 0 0 418 22
05/19/17 Video View Suzuki, Kurt ATL Romero, Enny WSH 8 SunTrust Par... PL 397 104.2 29.2 116.4 87 0 1 2 394 30
05/18/17 Video View Ceciliani, Darrell TOR Teheran, Julio ATL 3 SunTrust Par... ND 423 111.2 24.7 68.0 77 -2 2 2 421 30
05/18/17 Video View Maile, Luke TOR Teheran, Julio ATL 4 SunTrust Par... PL 389 102.1 28.9 111.2 90 -4 1 2 390 30
05/18/17 Video View Stroman, Marcus TOR Teheran, Julio ATL 4 SunTrust Par... PL 388 100.8 27.3 73.2 80 -1 1 2 386 28
05/17/17 Video View Suzuki, Kurt ATL Biagini, Joe TOR 1 SunTrust Par... PL 412 103.4 27.6 102.3 90 -1 2 2 409 30
05/17/17 Video View Smoak, Justin TOR Foltynewicz, Mike ATL 4 SunTrust Par... PL 404 101.3 28.7 79.6 97 -3 2 2 403 28
05/17/17 Video View Bautista, Jose TOR O'Flaherty, Eric ATL 8 SunTrust Par... PL 407 103.5 29.2 107.0 96 -1 2 3 405 30
05/07/17 Video View Carpenter, Matt STL Dickey, R.A. ATL 1 SunTrust Par... PL 406 101.0 30.5 72.9 93 12 0 3 392 29
05/07/17 Video View Pham, Tommy STL Dickey, R.A. ATL 3 SunTrust Par... JE 372 99.6 26.7 68.5 69 3 0 1 369 14
05/07/17 Video View Freeman, Freddie ATL Cecil, Brett STL 8 SunTrust Par... PL 405 101.6 28.1 102.8 88 3 -1 2 400 30
05/07/17 Video View Pham, Tommy STL Collmenter, Josh ATL 14 SunTrust Par... ND 404 107.5 36.3 117.7 138 10 -1 6 390 30
05/06/17 Video View Carpenter, Matt STL Teheran, Julio ATL 3 SunTrust Par... ND 411 107.9 27.1 63.0 80 3 0 2 406 30
05/06/17 Video View Adams, Matt STL Teheran, Julio ATL 4 SunTrust Par... ND 409 109.1 26.2 62.1 76 0 0 1 407 30
05/06/17 Video View Garcia, Adonis ATL Leake, Mike STL 7 SunTrust Par... PL 428 105.5 25.3 95.1 88 0 -1 1 428 27
05/05/17 Video View Pham, Tommy STL Foltynewicz, Mike ATL 3 SunTrust Par... JE 411 104.1 22.9 88.4 71 -1 -1 0 412 15
05/05/17 Video View Carpenter, Matt STL Foltynewicz, Mike ATL 4 SunTrust Par... JE/L 411 98.9 31.9 88.0 105 16 -4 3 396 0
05/02/17 Video View Bruce, Jay NYM Dickey, R.A. ATL 1 SunTrust Par... ND 424 105.9 31.5 75.7 120 0 1 4 419 30
05/02/17 Video View Freeman, Freddie ATL Harvey, Matt NYM 1 SunTrust Par... ND 405 105.9 32.8 62.7 112 1 0 4 401 30
05/02/17 Video View Cabrera, Asdrubal NYM Dickey, R.A. ATL 3 SunTrust Par... ND 411 104.6 28.0 73.2 91 0 0 2 409 30
05/02/17 Video View Bruce, Jay NYM Wisler, Matt ATL 9 SunTrust Par... JE 392 102.2 27.2 108.0 81 0 -1 2 391 30
05/01/17 Video View Conforto, Michael NYM Teheran, Julio ATL 1 SunTrust Par... JE 416 105.6 21.7 91.9 70 1 1 0 414 16
05/01/17 Video View Inciarte, Ender ATL Gsellman, Robert NYM 1 SunTrust Par... PL 373 101.0 28.4 61.6 77 -1 1 2 372 29
05/01/17 Video View Reyes, Jose NYM Krol, Ian ATL 8 SunTrust Par... JE 365 97.3 34.4 112.6 107 0 0 4 363 24
04/20/17 Video View Zimmerman, Ryan WSH Dickey, R.A. ATL 6 SunTrust Par... PL 431 104.1 29.5 93.9 109 3 1 3 426 29
04/19/17 Video View Harper, Bryce WSH Teheran, Julio ATL 1 SunTrust Par... PL 403 101.2 32.3 81.6 119 -4 1 4 402 28
04/19/17 Video View Harper, Bryce WSH Teheran, Julio ATL 2 SunTrust Par... JE 414 101.6 29.7 92.8 109 -2 1 2 413 21
04/19/17 Video View Freeman, Freddie ATL Ross, Joe WSH 3 SunTrust Par... PL 424 104.6 24.4 89.9 85 0 0 1 423 28
04/19/17 Video View Zimmerman, Ryan WSH Krol, Ian ATL 8 SunTrust Par... PL 398 104.8 24.9 72.9 73 -1 0 1 397 30
04/17/17 Video View Freeman, Freddie ATL Weaver, Jered SD 3 SunTrust Par... PL 410 102.3 27.8 79.3 91 1 0 1 407 28
04/17/17 Video View Cordoba, Allen SD Garcia, Jaime ATL 7 SunTrust Par... JE 400 108.0 23.3 109.0 64 0 0 1 399 30
04/17/17 Video View Hedges, Austin SD Vizcaino, Arodys ATL 8 SunTrust Par... PL 371 97.5 30.4 68.9 87 0 0 2 369 22
04/17/17 Video View Freeman, Freddie ATL Buchter, Ryan SD 8 SunTrust Par... PL 417 103.0 27.2 98.6 89 2 0 1 413 30
04/16/17 Video View Schimpf, Ryan SD Colon, Bartolo ATL 2 SunTrust Par... PL 419 103.0 28.2 96.1 101 -2 1 2 418 27
04/16/17 Video View Inciarte, Ender ATL Diaz, Miguel SD 7 SunTrust Par... PL 384 102.5 26.8 68.4 78 -4 1 2 385 30
04/15/17 Video View Renfroe, Hunter SD Dickey, R.A. ATL 2 SunTrust Par... PL 409 102.6 27.2 99.9 91 -3 0 1 409 30
04/15/17 Video View Hedges, Austin SD Dickey, R.A. ATL 2 SunTrust Par... PL 394 107.2 24.1 113.4 65 0 0 1 392 30
04/15/17 Video View Phillips, Brandon ATL Richard, Clayton SD 6 SunTrust Par... PL 438 108.1 24.3 95.8 89 -2 0 1 438 30
04/15/17 Video View Garcia, Adonis ATL Richard, Clayton SD 6 SunTrust Par... JE 391 99.9 28.7 80.0 99 -8 1 2 396 24
04/14/17 Video View Inciarte, Ender ATL Stammen, Craig SD 6 SunTrust Par... PL 353 97.4 37.5 62.8 120 0 0 5 348 23


About HitTracker | Contact Us
© 2006-2017 HitTrackerOnline